Pagrindinis puslapis
METAR-TAF:

METAR-TAF

Oro uostai :

Oro uostas

Kachramanmarašas, Turkija

platuma: 37-32-20N, ilguma: 036-57-12E, Aukštis: 525 m

Dabartinis oras

Ataskaita buvo paskelbta 22 minutes, ne 04:50 UTC
Vėjas 3 kt iš Rytų/Pietryčių
Temperatūra 7°C
Drėgmė 93%
Slėgis 1016 hPa
Matomumas: 2000 m
Mažai debesys ne aukštis 1200 ft
Išsisklaidę debesys ne aukštis 3000 ft
Su prošvaistėmis ne aukštis 8000 ft
lietus, rūkana

METAR: LTCN 100450Z 11003KT 2000 -SHRA BR FEW012 SCT030 BKN080 07/06 Q1016 BECMG TL0550 4000 TEMPO SHRA

Laikas: 08:12 (05:12 UTC)

Prognozė

Ataskaita buvo paskelbta 3 valandos ir 32 minutes, ne 01:40 UTC
Prognozė galioja nuo 10 metu 03 UTC su 10 metu 12 UTC
Vėjas 2 kt nuo kintamojo kryptimis
Matomumas: 4000 m
Mažai debesys ne aukštis 1200 ft
Išsisklaidę debesys ne aukštis 3000 ft
Su prošvaistėmis ne aukštis 8000 ft
lietus, rūkana
Laikinai
nuo 10 metu 03 UTC su 10 metu 06 UTC
Matomumas: 2000 m
lietus

TAF: LTCN 100140Z 1003/1012 VRB02KT 4000 -SHRA BR FEW012 SCT030 BKN080 TEMPO 1003/1006 2000 SHRA

Orai ataskaitas ir orų prognozės (METAR, TAF).

turimą stotys yra geltonos ir raudonos taškus žemėlapyje.

Perkelti pele per norėdami pamatyti stoties vardą.

Tada spustelėkite, norėdami matyti oro stebėjimo ir prognozės.

Norėdami pakeisti žemėlapį: spustelėkite ant žalios mygtukų su juodo kryžiaus žemyn,; žalią mygtuką su brūkšneliu, jei norite nutolinti; arba žalių rodyklių gretimoms žemėlapius.


METAR-TAF: